createdAt,value
2018-12-17T17:59:31.214Z,102079.09
2018-12-17T18:01:58.803Z,102086.42
2018-12-17T18:04:26.309Z,102086.63
2018-12-17T18:06:53.814Z,102091.69
2018-12-17T18:09:21.289Z,102094.67
2018-12-17T18:11:48.758Z,102096.94
2018-12-17T18:14:16.254Z,102103.26
2018-12-17T18:16:43.729Z,102103.69
2018-12-17T18:19:11.278Z,102108.39
2018-12-17T18:21:38.751Z,102113.64
2018-12-17T18:24:06.239Z,102116.63
2018-12-17T18:26:33.687Z,102118.13
2018-12-17T18:29:02.699Z,102121.96
2018-12-17T18:31:30.349Z,102123.06
2018-12-17T18:33:57.845Z,102124.49
2018-12-17T18:36:25.334Z,102127.39
2018-12-17T18:38:52.897Z,102129.48
2018-12-17T18:41:20.373Z,102130.61
2018-12-17T18:43:47.824Z,102134.58
2018-12-17T18:46:15.299Z,102144.12
2018-12-17T18:48:42.743Z,102137.09
2018-12-17T18:51:10.243Z,102151.41
2018-12-17T18:53:37.689Z,102151.84
2018-12-17T18:56:05.143Z,102155.48
2018-12-17T18:58:32.645Z,102157.22
2018-12-17T19:01:00.103Z,102154.64
2018-12-17T19:03:27.715Z,102155.20
2018-12-17T19:05:55.158Z,102154.30
2018-12-17T19:08:22.617Z,102160.26
2018-12-17T19:10:50.108Z,102168.13
2018-12-17T19:13:17.642Z,102171.63
2018-12-17T19:15:45.132Z,102176.83
2018-12-17T19:18:12.601Z,102180.50
2018-12-17T19:20:40.080Z,102178.45
2018-12-17T19:23:07.567Z,102181.41
2018-12-17T19:25:35.078Z,102187.05
2018-12-17T19:28:02.699Z,102181.59
2018-12-17T19:30:30.161Z,102189.59
2018-12-17T19:32:57.655Z,102191.73
2018-12-17T19:35:25.442Z,102188.92
2018-12-17T19:37:52.909Z,102189.54
2018-12-17T19:40:20.395Z,102192.56
2018-12-17T19:42:47.890Z,102198.72
2018-12-17T19:45:15.366Z,102195.55
2018-12-17T19:47:42.842Z,102203.45
2018-12-17T19:50:10.322Z,102195.02
2018-12-17T19:52:37.809Z,102195.05
2018-12-17T19:55:05.834Z,102204.86
2018-12-17T19:57:33.246Z,102212.22
2018-12-17T20:00:00.770Z,102202.71
2018-12-17T20:02:28.208Z,102205.30
2018-12-17T20:04:55.703Z,102207.28
2018-12-17T20:07:23.144Z,102210.65
2018-12-17T20:09:50.639Z,102219.23
2018-12-17T20:12:18.123Z,102219.53
2018-12-17T20:14:45.576Z,102226.63
2018-12-17T20:17:13.081Z,102220.44
2018-12-17T20:19:40.643Z,102227.70
2018-12-17T20:22:08.149Z,102235.78
2018-12-17T20:24:35.638Z,102237.48
2018-12-17T20:27:03.153Z,102238.05
2018-12-17T20:29:30.758Z,102236.64
2018-12-17T20:31:58.235Z,102244.08
2018-12-17T20:34:25.693Z,102247.01
2018-12-17T20:36:53.203Z,102248.70
2018-12-17T20:39:20.659Z,102254.66
2018-12-17T20:41:48.138Z,102252.81
2018-12-17T20:44:15.615Z,102264.80
2018-12-17T20:46:43.093Z,102264.41
2018-12-17T20:49:10.595Z,102258.59
2018-12-17T20:51:38.050Z,102261.16
2018-12-17T20:54:05.553Z,102259.89
2018-12-17T20:56:33.074Z,102264.27
2018-12-17T20:59:00.575Z,102262.96
2018-12-17T21:01:28.104Z,102265.02
2018-12-17T21:03:55.587Z,102268.16
2018-12-17T21:06:23.096Z,102273.09
2018-12-17T21:08:50.614Z,102277.17
2018-12-17T21:11:18.084Z,102271.62
2018-12-17T21:13:45.629Z,102270.63
2018-12-17T21:16:13.094Z,102270.84
2018-12-17T21:18:40.522Z,102269.02
2018-12-17T21:21:08.029Z,102270.14
2018-12-17T21:23:35.804Z,102269.83
2018-12-17T21:26:03.413Z,102271.92
2018-12-17T21:28:30.897Z,102271.13
2018-12-17T21:30:58.378Z,102271.00
2018-12-17T21:33:25.893Z,102270.49
2018-12-17T21:35:53.354Z,102274.18
2018-12-17T21:38:20.812Z,102272.75
2018-12-17T21:40:48.292Z,102280.03
2018-12-17T21:43:15.793Z,102271.78
2018-12-17T21:45:43.270Z,102281.30
2018-12-17T21:48:10.786Z,102278.50
2018-12-17T21:50:38.367Z,102285.16
2018-12-17T21:53:05.838Z,102284.47
2018-12-17T21:55:33.335Z,102282.25
2018-12-17T21:58:00.839Z,102278.86
2018-12-17T22:00:28.329Z,102278.05
2018-12-17T22:02:55.771Z,102285.50
2018-12-17T22:05:23.217Z,102286.59
2018-12-17T22:07:50.719Z,102285.22
2018-12-17T22:10:23.692Z,102286.03
2018-12-17T22:12:51.185Z,102294.13
2018-12-17T22:15:18.643Z,102296.80
2018-12-17T22:17:46.135Z,102306.34
2018-12-17T22:20:13.616Z,102311.59
2018-12-17T22:22:41.066Z,102313.34
2018-12-17T22:25:08.585Z,102310.34
2018-12-17T22:27:36.038Z,102311.94
2018-12-17T22:30:05.498Z,102310.72
2018-12-17T22:32:33.016Z,102310.61
2018-12-17T22:35:00.458Z,102317.52
2018-12-17T22:37:27.933Z,102318.45
2018-12-17T22:39:55.383Z,102312.92
2018-12-17T22:42:22.841Z,102324.99
2018-12-17T22:44:50.311Z,102325.96
2018-12-17T22:47:17.763Z,102321.74
2018-12-17T22:49:45.266Z,102323.37
2018-12-17T22:52:12.733Z,102326.34
2018-12-17T22:54:40.196Z,102321.60
2018-12-17T22:57:07.683Z,102324.13
2018-12-17T22:59:36.072Z,102323.03
2018-12-17T23:02:03.516Z,102327.38
2018-12-17T23:04:31.120Z,102325.64
2018-12-17T23:06:58.577Z,102328.45
2018-12-17T23:09:26.055Z,102329.31
2018-12-17T23:12:08.459Z,102325.91
2018-12-17T23:14:47.662Z,102327.34
2018-12-17T23:17:27.052Z,102322.86
2018-12-17T23:19:54.527Z,102319.77
2018-12-17T23:22:22.011Z,102326.97
2018-12-17T23:24:49.651Z,102320.88
2018-12-17T23:27:17.142Z,102313.51
2018-12-17T23:29:44.686Z,102314.82
2018-12-17T23:32:12.190Z,102307.98
2018-12-17T23:34:39.631Z,102312.12
2018-12-17T23:37:07.109Z,102310.72
2018-12-17T23:39:34.558Z,102314.28
2018-12-17T23:42:02.051Z,102304.67
2018-12-17T23:47:10.978Z,102305.38
2018-12-17T23:49:38.431Z,102307.55
2018-12-17T23:52:05.924Z,102306.53
2018-12-17T23:54:33.369Z,102303.64
2018-12-17T23:57:00.895Z,102299.41
2018-12-17T23:59:28.351Z,102305.38
